Time;durP1;ratioP1;P1;durP2;ratioP2;P2;SDS_P1;SDS_P2;PMS_P1;PMS_P2;Temp;Humidity;BMP_temperature;BMP_pressure;BME280_temperature;BME280_humidity;BME280_pressure;Samples;Min_cycle;Max_cycle;Signal;HPM_P1;HPM_P2
2022/05/14 00:00:24;;;;;;;1.35;0.80;;;15.20;49.70;;;;;;5082433;28;20336;-82
2022/05/14 00:02:50;;;;;;;1.27;0.60;;;15.10;50.00;;;;;;5035270;28;20370;-82
2022/05/14 00:05:20;;;;;;;1.00;0.65;;;15.10;50.00;;;;;;5038791;28;20028;-81
2022/05/14 00:07:47;;;;;;;1.20;0.60;;;15.10;50.40;;;;;;5044329;28;20051;-81
2022/05/14 00:10:15;;;;;;;1.75;0.70;;;15.00;50.10;;;;;;5048522;28;20024;-81
2022/05/14 00:15:25;;;;;;;3.10;0.80;;;14.90;50.30;;;;;;5064069;28;20032;-81
2022/05/14 00:17:51;;;;;;;1.15;0.57;;;14.90;50.40;;;;;;5048975;28;20047;-81
2022/05/14 00:20:17;;;;;;;1.83;0.73;;;14.80;50.40;;;;;;5063100;28;20094;-81
2022/05/14 00:22:43;;;;;;;1.42;0.65;;;14.80;50.60;;;;;;5054687;28;20115;-81
2022/05/14 00:25:10;;;;;;;1.87;0.60;;;14.80;50.70;;;;;;5064825;28;20119;-81
2022/05/14 00:27:41;;;;;;;1.42;0.80;;;14.80;50.80;;;;;;5023427;28;20029;-81
2022/05/14 00:30:07;;;;;;;1.15;0.60;;;14.70;51.20;;;;;;5051591;28;20036;-82
2022/05/14 00:32:33;;;;;;;1.70;0.70;;;14.70;50.90;;;;;;5070828;28;20048;-81
2022/05/14 00:34:59;;;;;;;0.70;0.65;;;14.60;51.00;;;;;;5040056;28;20783;-81
2022/05/14 00:37:24;;;;;;;1.20;0.70;;;14.60;51.00;;;;;;5075267;28;20109;-82
2022/05/14 00:39:50;;;;;;;0.95;0.80;;;14.60;51.10;;;;;;5038613;28;20264;-81
2022/05/14 00:42:15;;;;;;;1.97;0.80;;;14.60;51.40;;;;;;5044257;28;20439;-82
2022/05/14 00:44:41;;;;;;;1.63;0.70;;;14.50;51.30;;;;;;5046688;28;20102;-82
2022/05/14 00:47:12;;;;;;;1.50;0.63;;;14.50;51.40;;;;;;5069905;28;20060;-82
2022/05/14 00:49:38;;;;;;;2.08;0.70;;;14.40;51.70;;;;;;5046870;28;20256;-81
2022/05/14 00:52:04;;;;;;;1.50;0.60;;;14.40;51.50;;;;;;5050512;28;20032;-81
2022/05/14 00:54:38;;;;;;;0.85;0.52;;;14.30;51.50;;;;;;5063850;28;20091;-81
2022/05/14 00:57:08;;;;;;;1.73;0.65;;;14.20;52.10;;;;;;5059055;28;20094;-81
2022/05/14 00:59:36;;;;;;;2.40;1.00;;;14.20;52.00;;;;;;5032093;28;20043;-81
2022/05/14 01:02:02;;;;;;;0.77;0.70;;;14.10;52.00;;;;;;5067126;28;20123;-81
2022/05/14 01:04:29;;;;;;;1.08;0.60;;;14.00;52.00;;;;;;5031898;28;20065;-82
2022/05/14 01:07:24;;;;;;;1.77;0.55;;;14.00;52.10;;;;;;5036426;28;20473;-82
2022/05/14 01:09:57;;;;;;;0.52;0.50;;;13.90;53.70;;;;;;5040942;28;20819;-81
2022/05/14 01:12:25;;;;;;;1.57;0.67;;;13.90;52.80;;;;;;5047219;28;20417;-81
2022/05/14 01:14:51;;;;;;;1.52;0.60;;;13.80;52.50;;;;;;5064703;28;20646;-81
2022/05/14 01:17:17;;;;;;;0.88;0.63;;;13.70;52.50;;;;;;5073412;28;20040;-81
2022/05/14 01:19:43;;;;;;;1.58;0.70;;;13.70;52.80;;;;;;5066779;28;20028;-81
2022/05/14 01:22:34;;;;;;;0.97;0.50;;;13.60;52.90;;;;;;5037252;28;20059;-81
2022/05/14 01:27:55;;;;;;;0.90;0.50;;;13.50;53.60;;;;;;5043789;28;20309;-82
2022/05/14 01:30:21;;;;;;;1.43;0.53;;;13.50;53.10;;;;;;5049278;28;20056;-81
2022/05/14 01:33:04;;;;;;;0.55;0.52;;;13.40;53.20;;;;;;5064024;28;20637;-81
2022/05/14 01:35:37;;;;;;;1.55;0.70;;;13.40;53.30;;;;;;5057585;28;20032;-81
2022/05/14 01:38:03;;;;;;;1.03;0.60;;;13.30;53.30;;;;;;5062884;28;20033;-81
2022/05/14 01:40:30;;;;;;;1.30;0.70;;;13.30;53.50;;;;;;5044707;28;20509;-81
2022/05/14 01:42:56;;;;;;;1.25;0.60;;;13.30;53.90;;;;;;5067009;28;20602;-81
2022/05/14 01:45:22;;;;;;;2.00;0.60;;;13.30;53.80;;;;;;5046573;28;20037;-81
2022/05/14 01:47:47;;;;;;;0.80;0.60;;;13.20;53.90;;;;;;5045788;28;20598;-82
2022/05/14 01:50:14;;;;;;;2.10;0.90;;;13.20;53.90;;;;;;5030266;28;20040;-81
2022/05/14 01:52:40;;;;;;;0.90;0.60;;;13.10;54.10;;;;;;5058934;28;20059;-81
2022/05/14 01:55:06;;;;;;;1.55;0.60;;;13.10;54.20;;;;;;5057650;28;20036;-81
2022/05/14 01:57:32;;;;;;;1.60;0.60;;;13.00;54.20;;;;;;5040346;28;20024;-81
2022/05/14 01:59:57;;;;;;;4.03;1.10;;;13.00;54.30;;;;;;5046971;28;20159;-81
2022/05/14 02:02:23;;;;;;;1.38;0.60;;;12.90;54.40;;;;;;5053299;28;20060;-82
2022/05/14 02:04:48;;;;;;;1.03;0.60;;;12.90;54.60;;;;;;5064371;28;20051;-82
2022/05/14 02:07:14;;;;;;;1.50;0.60;;;12.90;54.70;;;;;;5036487;28;20032;-81
2022/05/14 02:09:40;;;;;;;1.63;0.70;;;12.80;54.70;;;;;;5057256;28;20291;-81
2022/05/14 02:12:06;;;;;;;1.10;0.70;;;12.80;54.90;;;;;;5064403;28;20052;-81
2022/05/14 02:14:31;;;;;;;2.23;0.70;;;12.80;54.90;;;;;;5050728;28;20263;-81
2022/05/14 02:16:57;;;;;;;1.13;0.70;;;12.70;55.20;;;;;;5061844;28;20043;-81
2022/05/14 02:19:23;;;;;;;0.95;0.60;;;12.70;55.10;;;;;;5049537;28;20047;-81
2022/05/14 02:21:49;;;;;;;1.33;0.53;;;12.60;55.20;;;;;;5033975;28;20610;-82
2022/05/14 02:24:15;;;;;;;1.35;0.80;;;12.60;55.40;;;;;;5043963;28;20060;-81
2022/05/14 02:26:41;;;;;;;2.17;0.70;;;12.50;55.40;;;;;;5036103;28;20113;-81
2022/05/14 02:29:06;;;;;;;1.10;0.80;;;12.50;55.70;;;;;;5065368;28;20044;-82
2022/05/14 02:31:32;;;;;;;1.23;0.60;;;12.50;55.70;;;;;;5056842;28;20063;-81
2022/05/14 02:33:58;;;;;;;1.13;0.60;;;12.40;55.70;;;;;;5056382;28;20315;-81
2022/05/14 02:36:24;;;;;;;1.20;0.60;;;12.40;55.80;;;;;;5069440;28;20036;-81
2022/05/14 02:38:49;;;;;;;1.23;0.70;;;12.40;55.90;;;;;;5053949;28;20219;-81
2022/05/14 02:41:15;;;;;;;0.77;0.60;;;12.40;56.00;;;;;;5061053;28;20067;-82
2022/05/14 02:43:41;;;;;;;0.83;0.63;;;12.30;55.90;;;;;;5055264;28;20036;-81
2022/05/14 02:46:08;;;;;;;1.23;0.75;;;12.30;56.20;;;;;;5040392;28;20264;-81
2022/05/14 02:48:35;;;;;;;0.60;0.60;;;12.30;56.30;;;;;;5043856;28;20036;-81
2022/05/14 02:51:01;;;;;;;1.25;0.70;;;12.30;56.50;;;;;;5055262;28;20135;-81
2022/05/14 02:53:27;;;;;;;2.47;0.80;;;12.20;56.30;;;;;;5031331;28;20038;-81
2022/05/14 02:55:53;;;;;;;1.00;0.70;;;12.20;56.50;;;;;;5057363;28;20264;-81
2022/05/14 03:01:05;;;;;;;1.27;0.73;;;12.20;56.60;;;;;;5057402;28;20060;-81
2022/05/14 03:03:31;;;;;;;1.02;0.70;;;12.20;56.60;;;;;;5046636;28;20790;-82
2022/05/14 03:05:58;;;;;;;1.70;0.67;;;12.20;56.80;;;;;;5055360;28;20032;-81
2022/05/14 03:08:24;;;;;;;1.35;0.70;;;12.20;56.90;;;;;;5057054;28;20456;-81
2022/05/14 03:10:49;;;;;;;1.80;0.80;;;12.10;56.90;;;;;;5070634;28;20175;-81
2022/05/14 03:13:15;;;;;;;0.80;0.60;;;12.10;56.90;;;;;;5054278;28;20082;-81
2022/05/14 03:15:41;;;;;;;1.00;0.60;;;12.10;57.00;;;;;;5040619;28;20045;-81
2022/05/14 03:18:07;;;;;;;1.77;1.00;;;12.20;57.20;;;;;;5022599;28;20031;-81
2022/05/14 03:20:32;;;;;;;0.75;0.60;;;12.10;57.20;;;;;;5059245;28;20036;-81
2022/05/14 03:22:58;;;;;;;3.13;0.83;;;12.10;57.20;;;;;;5062483;28;20258;-81
2022/05/14 03:25:24;;;;;;;1.33;0.80;;;12.10;57.30;;;;;;5067478;28;20033;-81
2022/05/14 03:27:50;;;;;;;1.77;0.75;;;12.20;57.40;;;;;;5045896;28;20471;-80
2022/05/14 03:30:17;;;;;;;1.90;0.70;;;12.20;57.40;;;;;;5059904;28;20032;-80
2022/05/14 03:32:43;;;;;;;1.45;0.80;;;12.10;57.30;;;;;;5061026;28;20330;-80
2022/05/14 03:35:09;;;;;;;1.63;0.88;;;12.10;57.40;;;;;;5057607;28;20033;-80
2022/05/14 03:37:35;;;;;;;1.80;0.80;;;12.10;57.40;;;;;;5047864;28;20028;-80
2022/05/14 03:40:02;;;;;;;3.30;0.73;;;12.10;57.60;;;;;;5037135;28;20094;-80
2022/05/14 03:42:29;;;;;;;1.65;0.70;;;12.10;57.80;;;;;;5048274;28;20056;-80
2022/05/14 03:44:54;;;;;;;0.87;0.63;;;12.10;57.80;;;;;;5044486;28;20060;-80
2022/05/14 03:47:20;;;;;;;1.55;0.65;;;12.10;57.60;;;;;;5049521;28;20059;-80
2022/05/14 03:49:46;;;;;;;1.43;0.83;;;12.10;57.70;;;;;;5030223;28;20272;-80
2022/05/14 03:52:12;;;;;;;1.80;0.80;;;12.10;57.90;;;;;;5067337;28;20114;-80
2022/05/14 03:54:43;;;;;;;1.30;0.70;;;12.10;57.80;;;;;;5056922;28;20029;-80
2022/05/14 03:57:09;;;;;;;2.22;0.80;;;12.10;57.80;;;;;;5068218;28;20040;-80
2022/05/14 03:59:35;;;;;;;1.13;0.63;;;12.10;57.80;;;;;;5042551;28;20039;-80
2022/05/14 04:02:03;;;;;;;1.10;0.70;;;12.00;57.90;;;;;;5043056;28;20097;-80
2022/05/14 04:04:30;;;;;;;1.30;0.75;;;12.00;58.70;;;;;;5053626;28;20290;-80
2022/05/14 04:06:56;;;;;;;1.60;0.82;;;12.00;58.10;;;;;;5059582;28;20236;-80
2022/05/14 04:09:22;;;;;;;2.20;0.90;;;12.00;58.20;;;;;;5072695;28;20478;-80
2022/05/14 04:11:48;;;;;;;1.73;0.70;;;12.00;58.30;;;;;;5041767;28;20032;-80
2022/05/14 04:14:13;;;;;;;0.98;0.70;;;12.00;58.20;;;;;;5070857;28;20031;-81
2022/05/14 04:16:39;;;;;;;1.73;0.73;;;12.00;58.40;;;;;;5047428;28;20560;-80
2022/05/14 04:19:05;;;;;;;1.00;0.75;;;12.00;58.50;;;;;;5073296;28;20032;-80
2022/05/14 04:21:32;;;;;;;1.67;0.80;;;12.00;59.30;;;;;;5036202;28;20040;-80
2022/05/14 04:23:59;;;;;;;1.50;0.67;;;12.00;58.80;;;;;;5056288;28;20028;-79
2022/05/14 04:26:25;;;;;;;1.88;0.80;;;12.00;58.80;;;;;;5061059;28;20036;-80
2022/05/14 04:28:51;;;;;;;1.50;0.80;;;12.00;58.80;;;;;;5057221;28;20158;-80
2022/05/14 04:31:18;;;;;;;1.67;0.85;;;12.00;58.90;;;;;;5072964;28;20037;-80
2022/05/14 04:33:44;;;;;;;2.05;0.80;;;12.00;59.00;;;;;;5058109;28;20264;-81
2022/05/14 04:36:10;;;;;;;2.67;0.90;;;12.00;59.00;;;;;;5059571;28;20036;-80
2022/05/14 04:38:35;;;;;;;1.48;0.80;;;12.00;59.10;;;;;;5032098;28;20056;-81
2022/05/14 04:41:01;;;;;;;1.73;0.80;;;12.00;59.20;;;;;;5041269;28;20562;-80
2022/05/14 04:43:27;;;;;;;1.63;0.80;;;12.10;59.30;;;;;;5068943;28;20489;-80
2022/05/14 04:45:53;;;;;;;2.07;0.80;;;12.10;59.30;;;;;;5057725;28;20262;-80
2022/05/14 04:48:19;;;;;;;1.10;0.70;;;12.20;59.40;;;;;;5063501;28;20472;-80
2022/05/14 04:50:46;;;;;;;2.65;0.80;;;12.10;59.40;;;;;;5046748;28;20090;-80
2022/05/14 04:53:12;;;;;;;2.33;0.68;;;12.20;59.50;;;;;;5054259;28;20027;-80
2022/05/14 04:55:38;;;;;;;1.13;0.70;;;12.20;59.50;;;;;;5068002;28;20033;-80
2022/05/14 04:58:06;;;;;;;1.50;0.80;;;12.30;59.60;;;;;;5072597;28;20625;-80
2022/05/14 05:00:32;;;;;;;1.70;0.80;;;12.30;59.60;;;;;;5047406;28;20276;-80
2022/05/14 05:05:41;;;;;;;3.53;0.88;;;12.30;59.80;;;;;;5054364;28;20028;-80
2022/05/14 05:08:07;;;;;;;1.85;0.80;;;12.30;59.60;;;;;;5033624;28;20033;-79
2022/05/14 05:10:33;;;;;;;2.20;0.90;;;12.40;59.90;;;;;;5044896;28;20366;-80
2022/05/14 05:12:59;;;;;;;2.38;0.90;;;12.40;60.00;;;;;;5044458;28;20087;-80
2022/05/14 05:15:25;;;;;;;1.20;0.70;;;12.40;60.00;;;;;;5055978;28;20057;-80
2022/05/14 05:17:51;;;;;;;2.40;0.80;;;12.50;60.30;;;;;;5060143;28;20063;-80
2022/05/14 05:20:17;;;;;;;1.35;0.80;;;12.50;60.30;;;;;;5023560;28;20052;-80
2022/05/14 05:22:43;;;;;;;1.95;0.75;;;12.50;60.30;;;;;;5065402;28;20028;-80
2022/05/14 05:25:10;;;;;;;2.10;0.80;;;12.60;60.40;;;;;;5045913;28;20521;-80
2022/05/14 05:27:36;;;;;;;2.30;0.80;;;12.60;60.40;;;;;;5053077;28;20888;-80
2022/05/14 05:30:03;;;;;;;1.90;0.80;;;12.70;60.50;;;;;;5069984;28;20066;-80
2022/05/14 05:32:29;;;;;;;2.27;0.90;;;12.70;60.70;;;;;;5055631;28;20575;-80
2022/05/14 05:34:55;;;;;;;1.67;0.90;;;12.80;60.90;;;;;;5056234;28;20060;-80
2022/05/14 05:37:20;;;;;;;2.63;0.83;;;12.80;60.80;;;;;;5035335;28;20237;-79
2022/05/14 05:39:46;;;;;;;2.10;1.00;;;12.90;61.00;;;;;;5047691;28;20036;-79
2022/05/14 05:42:11;;;;;;;2.23;1.00;;;12.90;61.00;;;;;;5038909;28;20119;-79
2022/05/14 05:44:37;;;;;;;2.47;0.90;;;13.00;61.20;;;;;;5046173;28;20037;-80
2022/05/14 05:47:06;;;;;;;2.50;1.00;;;13.10;61.50;;;;;;5054052;28;20036;-79
2022/05/14 05:49:38;;;;;;;2.70;0.95;;;13.10;61.70;;;;;;5054723;28;20256;-80
2022/05/14 05:52:04;;;;;;;1.55;0.93;;;13.10;62.00;;;;;;5056470;28;20025;-79
2022/05/14 05:57:14;;;;;;;2.53;0.98;;;13.30;61.40;;;;;;5053702;28;20056;-79
2022/05/14 05:59:39;;;;;;;2.13;1.10;;;13.30;61.50;;;;;;5068023;28;20067;-79
2022/05/14 06:02:05;;;;;;;1.73;1.10;;;13.40;61.60;;;;;;5066945;28;20051;-80
2022/05/14 06:04:31;;;;;;;1.83;0.85;;;13.50;61.80;;;;;;5069370;28;20032;-81
2022/05/14 06:06:56;;;;;;;1.43;0.93;;;13.50;61.80;;;;;;5041560;28;20051;-81
2022/05/14 06:09:26;;;;;;;2.85;1.02;;;13.60;61.80;;;;;;5040302;28;20036;-80
2022/05/14 06:11:52;;;;;;;2.35;1.00;;;13.70;62.10;;;;;;5063467;28;20084;-80
2022/05/14 06:14:18;;;;;;;4.43;1.40;;;13.80;62.00;;;;;;5033840;28;20021;-78
2022/05/14 06:16:44;;;;;;;1.88;1.13;;;13.80;62.20;;;;;;5071304;28;20044;-80
2022/05/14 06:19:10;;;;;;;4.93;1.25;;;13.90;62.10;;;;;;5051525;28;20091;-79
2022/05/14 06:21:37;;;;;;;3.55;1.50;;;14.00;62.20;;;;;;5042005;28;20662;-79
2022/05/14 06:24:05;;;;;;;2.53;1.20;;;14.10;62.50;;;;;;5041120;28;20451;-80
2022/05/14 06:26:30;;;;;;;4.57;1.50;;;14.10;62.30;;;;;;5032601;28;20268;-79
2022/05/14 06:28:56;;;;;;;3.80;1.50;;;14.20;62.30;;;;;;5046272;28;20033;-79
2022/05/14 06:31:22;;;;;;;2.40;1.40;;;14.30;62.70;;;;;;5047698;28;20241;-80
2022/05/14 06:33:49;;;;;;;3.67;1.45;;;14.40;62.30;;;;;;5063845;28;20031;-79
2022/05/14 06:36:15;;;;;;;5.38;1.67;;;14.40;62.40;;;;;;5030183;28;20037;-79
2022/05/14 06:38:41;;;;;;;2.90;1.30;;;14.50;62.70;;;;;;5037084;28;20058;-79
2022/05/14 06:41:10;;;;;;;2.93;1.57;;;14.60;62.50;;;;;;5048567;28;20518;-79
2022/05/14 06:43:36;;;;;;;4.22;1.55;;;14.70;62.70;;;;;;5052128;28;20028;-79
2022/05/14 06:46:01;;;;;;;3.90;1.70;;;14.80;62.60;;;;;;5057666;28;20033;-79
2022/05/14 06:48:27;;;;;;;3.43;1.60;;;14.90;62.60;;;;;;5036586;28;20607;-80
2022/05/14 06:50:54;;;;;;;4.85;1.58;;;15.00;62.70;;;;;;5056264;28;20025;-80
2022/05/14 06:53:20;;;;;;;4.10;1.65;;;15.10;62.60;;;;;;5030612;28;20299;-80
2022/05/14 06:55:51;;;;;;;5.23;1.67;;;15.20;62.60;;;;;;5055849;28;20051;-80
2022/05/14 06:58:21;;;;;;;4.38;1.35;;;15.30;62.40;;;;;;5023369;28;20117;-80
2022/05/14 07:00:46;;;;;;;4.57;1.80;;;15.40;62.80;;;;;;5033434;28;20063;-80
2022/05/14 07:08:42;;;;;;;4.47;1.60;;;15.70;62.60;;;;;;5042566;28;20044;-79
2022/05/14 07:11:10;;;;;;;4.80;1.50;;;15.90;62.70;;;;;;5057629;28;20036;-80
2022/05/14 07:13:37;;;;;;;6.88;1.80;;;16.00;62.50;;;;;;5030133;28;20048;-79
2022/05/14 07:16:03;;;;;;;5.53;1.90;;;16.00;62.30;;;;;;5038547;28;20068;-79
2022/05/14 07:18:29;;;;;;;6.45;2.00;;;16.20;62.30;;;;;;5056815;28;20118;-80
2022/05/14 07:20:56;;;;;;;6.07;1.80;;;16.30;62.50;;;;;;5047090;28;20115;-80
2022/05/14 07:23:21;;;;;;;5.78;1.85;;;16.40;62.60;;;;;;5043960;28;20035;-80
2022/05/14 07:25:47;;;;;;;3.50;1.70;;;16.50;62.60;;;;;;5050558;28;20025;-80
2022/05/14 07:28:13;;;;;;;4.68;1.80;;;16.60;62.50;;;;;;5044461;28;20245;-80
2022/05/14 07:30:39;;;;;;;3.88;1.70;;;16.70;62.60;;;;;;5066586;28;20025;-80
2022/05/14 07:33:05;;;;;;;3.30;1.47;;;16.90;62.50;;;;;;5062209;28;20029;-79
2022/05/14 07:35:31;;;;;;;4.65;1.90;;;17.00;62.50;;;;;;5048265;28;20282;-80
2022/05/14 07:37:58;;;;;;;4.20;1.90;;;17.20;62.50;;;;;;5042699;28;20468;-80
2022/05/14 07:40:27;;;;;;;4.90;1.87;;;17.30;62.70;;;;;;5054739;28;20033;-80
2022/05/14 07:43:02;;;;;;;4.30;1.70;;;17.50;62.80;;;;;;5034319;28;20397;-80
2022/05/14 07:45:40;;;;;;;7.28;2.15;;;17.70;63.20;;;;;;5029452;28;20417;-79
2022/05/14 07:48:12;;;;;;;4.82;1.80;;;17.90;63.20;;;;;;5053825;28;20037;-80
2022/05/14 07:50:39;;;;;;;3.63;1.60;;;18.10;63.50;;;;;;5076966;28;20086;-81
2022/05/14 07:53:05;;;;;;;3.93;1.77;;;18.40;64.10;;;;;;5043316;28;20047;-79
2022/05/14 07:55:33;;;;;;;5.35;1.90;;;18.70;64.60;;;;;;5054506;28;20273;-79
2022/05/14 07:57:59;;;;;;;6.28;1.80;;;19.10;64.30;;;;;;5057762;28;20455;-80
2022/05/14 08:00:25;;;;;;;5.93;1.85;;;19.50;63.70;;;;;;5045561;28;20257;-79
2022/05/14 08:02:51;;;;;;;7.95;1.90;;;19.80;63.30;;;;;;5041947;28;20037;-79
2022/05/14 08:05:20;;;;;;;7.77;1.80;;;20.20;62.90;;;;;;5036908;28;20028;-80
2022/05/14 08:07:46;;;;;;;4.57;1.70;;;20.60;62.60;;;;;;5077919;28;20394;-79
2022/05/14 08:10:13;;;;;;;5.45;1.83;;;20.90;62.50;;;;;;5030035;28;20355;-80
2022/05/14 08:12:51;;;;;;;4.75;1.92;;;21.40;62.70;;;;;;5032561;28;20504;-80
2022/05/14 08:15:18;;;;;;;5.25;1.98;;;21.70;61.60;;;;;;5055981;28;20037;-80
2022/05/14 08:17:44;;;;;;;5.00;1.73;;;22.20;63.20;;;;;;5052193;28;20036;-81
2022/05/14 08:20:12;;;;;;;5.70;1.90;;;22.70;63.50;;;;;;5038626;28;20051;-81
2022/05/14 08:25:22;;;;;;;3.70;1.80;;;23.80;62.90;;;;;;5038200;28;20483;-81
2022/05/14 08:27:47;;;;;;;4.53;1.70;;;24.50;62.00;;;;;;5057703;28;20036;-81
2022/05/14 08:30:32;;;;;;;3.70;1.85;;;25.00;61.30;;;;;;5021283;28;20489;-80
2022/05/14 08:32:59;;;;;;;3.97;1.83;;;25.60;57.90;;;;;;5042984;28;20120;-81
2022/05/14 08:35:25;;;;;;;3.33;1.52;;;26.10;59.30;;;;;;5050925;28;20037;-80
2022/05/14 08:37:52;;;;;;;6.10;2.00;;;26.50;58.80;;;;;;5047292;28;20033;-81
2022/05/14 08:40:25;;;;;;;4.88;1.90;;;26.90;57.50;;;;;;5040039;28;20647;-81
2022/05/14 08:43:08;;;;;;;5.47;1.90;;;27.40;56.50;;;;;;5038995;28;20921;-80
2022/05/14 08:45:37;;;;;;;3.78;1.63;;;27.80;55.00;;;;;;5042826;28;20047;-80
2022/05/14 08:48:19;;;;;;;4.22;2.00;;;28.10;54.50;;;;;;5040181;28;20040;-81
2022/05/14 08:50:54;;;;;;;5.27;1.60;;;28.40;51.80;;;;;;5059533;28;20040;-81
2022/05/14 08:53:23;;;;;;;3.60;1.50;;;28.70;52.20;;;;;;5050163;28;20037;-81
2022/05/14 08:56:14;;;;;;;3.78;1.75;;;28.90;51.70;;;;;;5044676;28;20430;-81
2022/05/14 08:59:15;;;;;;;3.40;1.75;;;29.10;49.40;;;;;;5033188;28;21051;-76
2022/05/14 09:01:44;;;;;;;4.97;1.80;;;29.50;49.10;;;;;;5035535;28;20040;-77
2022/05/14 09:04:12;;;;;;;6.03;1.73;;;29.70;50.60;;;;;;5046167;28;20088;-77
2022/05/14 09:06:39;;;;;;;3.10;1.50;;;30.00;50.30;;;;;;5025897;28;20173;-75
2022/05/14 09:09:09;;;;;;;3.92;1.75;;;30.20;50.00;;;;;;5045911;28;20037;-77
2022/05/14 09:11:42;;;;;;;5.70;1.80;;;30.50;47.90;;;;;;5021255;28;20547;-76
2022/05/14 09:14:18;;;;;;;3.97;1.80;;;30.70;47.20;;;;;;5040852;28;20409;-76
2022/05/14 09:16:44;;;;;;;2.87;1.40;;;31.00;45.90;;;;;;5028924;28;20530;-76
2022/05/14 09:19:15;;;;;;;3.58;1.50;;;31.20;47.10;;;;;;5063926;28;20457;-76
2022/05/14 09:21:50;;;;;;;3.70;1.95;;;31.40;45.50;;;;;;5045056;28;20588;-75
2022/05/14 09:24:25;;;;;;;4.32;1.60;;;31.50;44.20;;;;;;5047368;28;20043;-76
2022/05/14 09:26:56;;;;;;;3.42;1.50;;;31.70;45.20;;;;;;5042467;28;20193;-76
2022/05/14 09:29:36;;;;;;;2.87;1.30;;;31.90;44.90;;;;;;5047034;28;20400;-76
2022/05/14 09:32:05;;;;;;;2.75;1.50;;;32.10;42.20;;;;;;5054026;28;20257;-76
2022/05/14 09:34:34;;;;;;;3.85;1.58;;;32.10;42.70;;;;;;5054178;28;20078;-76
2022/05/14 09:37:10;;;;;;;4.03;1.50;;;32.10;42.70;;;;;;5053349;28;20037;-76
2022/05/14 09:39:37;;;;;;;7.85;1.70;;;32.20;41.90;;;;;;5033830;28;20041;-78
2022/05/14 09:42:04;;;;;;;3.80;1.50;;;32.30;42.90;;;;;;5041382;28;20642;-76
2022/05/14 09:44:51;;;;;;;3.75;1.80;;;32.50;42.60;;;;;;5064987;28;20029;-79
2022/05/14 09:47:30;;;;;;;4.22;2.00;;;32.70;40.00;;;;;;5043718;28;20492;-81
2022/05/14 09:50:06;;;;;;;4.10;1.55;;;32.90;40.20;;;;;;5038829;28;20048;-82
2022/05/14 09:52:34;;;;;;;3.15;1.60;;;33.00;40.80;;;;;;5048308;28;20040;-79
2022/05/14 09:55:05;;;;;;;4.40;1.60;;;33.20;40.50;;;;;;5037997;28;20587;-79
2022/05/14 09:57:42;;;;;;;2.75;1.70;;;33.40;40.20;;;;;;5034359;28;20187;-81
2022/05/14 10:00:45;;;;;;;3.55;1.80;;;33.50;40.10;;;;;;5059958;28;20043;-81
2022/05/14 10:03:27;;;;;;;3.40;1.45;;;33.60;38.80;;;;;;4998270;28;20302;-79
2022/05/14 10:06:44;;;;;;;2.33;1.40;;;33.80;37.40;;;;;;5033654;28;20575;-80
2022/05/14 10:09:09;;;;;;;2.63;1.30;;;33.80;37.80;;;;;;5035797;28;20052;-80
2022/05/14 10:11:37;;;;;;;4.03;1.98;;;33.70;38.60;;;;;;5058034;28;20544;-79
2022/05/14 10:14:26;;;;;;;3.70;1.77;;;33.70;37.30;;;;;;5018995;28;20248;-78
2022/05/14 10:17:09;;;;;;;3.73;1.50;;;33.60;36.80;;;;;;5054677;28;20036;-80
2022/05/14 10:20:05;;;;;;;2.35;1.48;;;33.60;36.60;;;;;;5041719;28;20741;-80
2022/05/14 10:28:45;;;;;;;4.43;1.77;;;33.40;36.30;;;;;;5047028;28;20044;-80
2022/05/14 10:31:36;;;;;;;4.67;1.80;;;33.40;36.40;;;;;;5072470;28;20040;-80
2022/05/14 10:34:05;;;;;;;4.63;1.60;;;33.50;35.50;;;;;;5040372;28;20040;-79
2022/05/14 10:36:40;;;;;;;2.60;1.40;;;33.50;35.60;;;;;;5052016;28;20041;-79
2022/05/14 10:39:32;;;;;;;4.53;1.90;;;33.50;35.60;;;;;;5045372;28;20109;-80
2022/05/14 10:42:23;;;;;;;3.75;1.55;;;33.60;34.80;;;;;;5034301;28;20040;-80
2022/05/14 10:45:18;;;;;;;3.23;1.70;;;33.70;35.20;;;;;;5053051;28;20070;-80
2022/05/14 10:47:48;;;;;;;3.83;1.77;;;34.00;34.10;;;;;;5040440;28;20024;-79
2022/05/14 10:50:20;;;;;;;5.65;1.90;;;34.20;34.90;;;;;;5064736;28;20086;-79
2022/05/14 10:52:50;;;;;;;4.97;1.90;;;34.20;33.90;;;;;;5062553;28;20031;-81
2022/05/14 10:55:33;;;;;;;3.05;1.80;;;34.30;34.00;;;;;;5058096;28;20035;-80
2022/05/14 10:58:07;;;;;;;3.77;2.00;;;34.50;33.70;;;;;;5057720;28;20028;-79
2022/05/14 11:00:43;;;;;;;3.17;1.77;;;34.70;33.90;;;;;;5049611;28;20040;-82
2022/05/14 11:03:24;;;;;;;2.40;1.60;;;34.80;33.00;;;;;;5030517;28;20075;-80
2022/05/14 11:06:02;;;;;;;2.70;1.60;;;35.00;32.40;;;;;;5037943;28;20467;-79
2022/05/14 11:08:38;;;;;;;4.13;1.95;;;35.20;32.70;;;;;;5067576;28;20036;-80
2022/05/14 11:11:16;;;;;;;4.80;1.83;;;35.40;32.70;;;;;;5058965;28;20135;-79
2022/05/14 11:13:54;;;;;;;3.83;1.95;;;35.60;32.40;;;;;;5047059;28;20063;-79
2022/05/14 11:16:19;;;;;;;5.68;1.75;;;35.70;32.30;;;;;;5030210;28;20048;-80
2022/05/14 11:18:55;;;;;;;3.87;1.80;;;35.80;32.20;;;;;;5017257;28;20036;-79
2022/05/14 11:21:46;;;;;;;3.93;2.00;;;35.90;30.40;;;;;;5038591;28;20293;-80
2022/05/14 11:24:14;;;;;;;3.53;1.50;;;35.90;29.80;;;;;;5050635;28;20123;-81
2022/05/14 11:26:50;;;;;;;3.38;1.83;;;36.00;31.40;;;;;;5046631;28;20110;-79
2022/05/14 11:29:23;;;;;;;3.60;1.80;;;36.10;30.50;;;;;;5060252;28;20074;-81
2022/05/14 11:32:01;;;;;;;3.17;2.05;;;36.20;30.70;;;;;;5035617;28;20253;-80
2022/05/14 11:34:27;;;;;;;4.40;1.90;;;36.30;30.30;;;;;;5051158;28;20025;-81
2022/05/14 11:36:57;;;;;;;3.30;1.75;;;36.50;31.30;;;;;;5056063;28;20330;-80
2022/05/14 11:39:25;;;;;;;3.33;1.52;;;36.70;30.90;;;;;;5076568;28;20044;-80
2022/05/14 11:41:53;;;;;;;3.28;1.70;;;36.80;30.30;;;;;;5034186;28;20066;-80
2022/05/14 11:44:33;;;;;;;3.30;2.00;;;36.90;29.80;;;;;;5046382;28;20073;-81
2022/05/14 11:47:00;;;;;;;4.50;2.10;;;36.90;29.00;;;;;;5034574;28;20028;-81
2022/05/14 11:49:41;;;;;;;2.50;1.60;;;36.90;29.90;;;;;;5028792;28;20044;-81
2022/05/14 11:52:09;;;;;;;2.90;1.70;;;37.00;29.40;;;;;;5045831;28;20489;-80
2022/05/14 11:54:53;;;;;;;3.33;1.80;;;37.20;29.80;;;;;;5053685;28;20485;-80
2022/05/14 11:57:21;;;;;;;3.60;1.80;;;37.40;29.00;;;;;;5067110;28;20133;-81
2022/05/14 11:59:50;;;;;;;6.63;2.30;;;37.50;29.60;;;;;;5048261;28;20942;-80
2022/05/14 12:02:32;;;;;;;3.83;2.08;;;37.70;28.70;;;;;;5029762;28;20059;-79
2022/05/14 12:04:58;;;;;;;2.60;1.52;;;37.70;28.40;;;;;;5043084;28;20040;-81
2022/05/14 12:07:56;;;;;;;3.70;1.92;;;37.50;28.60;;;;;;5029568;28;20615;-81
2022/05/14 12:10:30;;;;;;;3.92;1.98;;;37.50;27.40;;;;;;5066905;28;20702;-81
2022/05/14 12:13:16;;;;;;;3.07;1.77;;;37.30;28.20;;;;;;5055000;28;20501;-81
2022/05/14 12:15:47;;;;;;;2.85;1.90;;;37.30;27.60;;;;;;5055479;28;20082;-80
2022/05/14 12:18:14;;;;;;;2.67;1.42;;;37.20;28.30;;;;;;5026550;28;20059;-80
2022/05/14 12:20:43;;;;;;;3.35;1.48;;;37.20;28.00;;;;;;5058540;28;20625;-81
2022/05/14 12:23:11;;;;;;;2.75;1.50;;;37.20;28.00;;;;;;5061164;28;20141;-80
2022/05/14 12:25:37;;;;;;;3.33;1.87;;;37.10;28.10;;;;;;5036726;28;20242;-82
2022/05/14 12:28:15;;;;;;;3.55;1.80;;;37.10;27.80;;;;;;5049482;28;20090;-80
2022/05/14 12:33:33;;;;;;;3.13;1.70;;;36.90;27.70;;;;;;5051713;28;20432;-80
2022/05/14 12:35:59;;;;;;;2.42;1.70;;;36.80;27.90;;;;;;5031059;28;20062;-81
2022/05/14 12:38:34;;;;;;;3.73;1.63;;;36.80;28.10;;;;;;5066821;28;20028;-80
2022/05/14 12:41:01;;;;;;;2.70;1.55;;;36.90;27.50;;;;;;5041064;28;20039;-80
2022/05/14 12:43:27;;;;;;;2.40;1.42;;;37.00;28.10;;;;;;5068302;28;20077;-81
2022/05/14 12:46:08;;;;;;;3.30;1.50;;;37.20;28.00;;;;;;5065544;28;20092;-80
2022/05/14 12:48:50;;;;;;;2.00;1.40;;;37.30;26.80;;;;;;5034384;28;20230;-81
2022/05/14 12:51:25;;;;;;;3.40;1.65;;;37.40;27.00;;;;;;5050985;28;20037;-80
2022/05/14 12:53:52;;;;;;;2.95;1.60;;;37.50;26.60;;;;;;5040385;28;20036;-80
2022/05/14 12:56:20;;;;;;;3.63;1.90;;;37.60;27.00;;;;;;5046095;28;20040;-82
2022/05/14 12:58:48;;;;;;;3.47;1.80;;;37.60;27.00;;;;;;5062962;28;20032;-80
2022/05/14 13:01:17;;;;;;;3.67;1.70;;;37.60;27.00;;;;;;5025212;28;20033;-80
2022/05/14 13:03:58;;;;;;;4.85;1.90;;;37.60;26.70;;;;;;5055810;28;20040;-79
2022/05/14 13:06:28;;;;;;;4.13;1.70;;;37.50;26.00;;;;;;5038498;28;20050;-81
2022/05/14 13:09:05;;;;;;;3.65;1.75;;;37.30;26.40;;;;;;5048354;28;20024;-80
2022/05/14 13:11:33;;;;;;;3.10;1.67;;;37.20;26.60;;;;;;5041530;28;21449;-81
2022/05/14 13:14:13;;;;;;;3.03;1.57;;;37.10;26.80;;;;;;5052463;28;20021;-82
2022/05/14 13:16:39;;;;;;;2.97;1.48;;;37.10;26.20;;;;;;5050646;28;20448;-80
2022/05/14 13:19:43;;;;;;;3.13;1.63;;;37.10;26.90;;;;;;5052158;28;20115;-82
2022/05/14 13:22:34;;;;;;;3.17;1.60;;;37.10;26.50;;;;;;5044273;28;20036;-79
2022/05/14 13:25:03;;;;;;;3.45;1.50;;;37.10;26.50;;;;;;5054938;28;20032;-80
2022/05/14 13:27:32;;;;;;;3.10;1.40;;;37.10;26.80;;;;;;5051998;28;20036;-80
2022/05/14 13:30:28;;;;;;;1.95;1.55;;;37.10;26.90;;;;;;5065655;28;20032;-81
2022/05/14 13:33:06;;;;;;;2.92;1.70;;;37.20;26.10;;;;;;5053615;28;20087;-81